Time;durP1;ratioP1;P1;durP2;ratioP2;P2;SDS_P1;SDS_P2;PMS_P1;PMS_P2;Temp;Humidity;BMP_temperature;BMP_pressure;BME280_temperature;BME280_humidity;BME280_pressure;Samples;Min_cycle;Max_cycle;Signal;HPM_P1;HPM_P2
2023/03/25 00:01:03;;;;;;;7.25;4.82;;;9.60;99.90;;;;;;4952004;28;20026;-90
2023/03/25 00:03:32;;;;;;;8.93;7.07;;;9.70;99.90;;;;;;4951686;28;20031;-90
2023/03/25 00:05:58;;;;;;;9.02;7.05;;;9.60;99.90;;;;;;4951885;28;20406;-90
2023/03/25 00:08:25;;;;;;;6.90;6.20;;;9.60;99.90;;;;;;4952664;28;20027;-91
2023/03/25 00:10:53;;;;;;;6.97;6.25;;;9.60;99.90;;;;;;4952499;28;20074;-90
2023/03/25 00:13:20;;;;;;;7.10;5.80;;;9.50;99.90;;;;;;4953573;28;20031;-90
2023/03/25 00:15:46;;;;;;;8.02;4.15;;;9.40;99.90;;;;;;4952929;28;20027;-91
2023/03/25 00:18:13;;;;;;;10.20;4.00;;;9.50;99.90;;;;;;4953277;28;20024;-90
2023/03/25 00:20:39;;;;;;;5.47;4.10;;;9.60;99.90;;;;;;4952419;28;20540;-89
2023/03/25 00:23:06;;;;;;;6.88;3.47;;;9.70;99.90;;;;;;4953031;28;20031;-90
2023/03/25 00:25:32;;;;;;;4.25;2.30;;;9.80;99.90;;;;;;4949882;28;20040;-90
2023/03/25 00:27:58;;;;;;;7.13;4.07;;;10.20;99.90;;;;;;4933797;29;20039;-90
2023/03/25 00:30:24;;;;;;;5.85;3.20;;;10.00;99.90;;;;;;4933964;29;20402;-90
2023/03/25 00:32:51;;;;;;;7.00;4.35;;;10.00;99.90;;;;;;4933985;29;20482;-90
2023/03/25 00:35:18;;;;;;;6.57;4.50;;;9.90;99.90;;;;;;4933361;29;20109;-89
2023/03/25 00:37:46;;;;;;;6.28;4.20;;;9.70;99.90;;;;;;4933722;29;20052;-90
2023/03/25 00:40:13;;;;;;;10.43;4.25;;;9.50;99.90;;;;;;4933527;29;20028;-90
2023/03/25 00:42:43;;;;;;;7.15;4.70;;;9.60;99.90;;;;;;4933486;29;20059;-90
2023/03/25 00:45:10;;;;;;;5.28;3.35;;;9.60;99.90;;;;;;4940304;29;20118;-90
2023/03/25 00:47:36;;;;;;;5.90;3.67;;;9.60;99.90;;;;;;4967619;28;20400;-89
2023/03/25 00:50:02;;;;;;;7.18;3.70;;;9.60;99.90;;;;;;4952102;28;20023;-90
2023/03/25 00:52:28;;;;;;;6.78;3.97;;;9.60;99.90;;;;;;4952822;28;20027;-90
2023/03/25 00:54:54;;;;;;;5.05;3.28;;;9.60;99.90;;;;;;4952472;28;20023;-90
2023/03/25 00:57:21;;;;;;;4.82;3.20;;;9.60;99.90;;;;;;4952508;28;20031;-90
2023/03/25 00:59:46;;;;;;;4.20;1.90;;;9.60;99.90;;;;;;4951992;28;20023;-90
2023/03/25 01:02:12;;;;;;;7.35;4.03;;;10.00;99.90;;;;;;4952324;28;20100;-90
2023/03/25 01:04:39;;;;;;;6.32;4.18;;;9.90;99.90;;;;;;4952115;28;20032;-90
2023/03/25 01:07:04;;;;;;;5.53;2.90;;;9.60;99.90;;;;;;4951035;29;20073;-90
2023/03/25 01:09:30;;;;;;;4.53;2.80;;;9.60;99.90;;;;;;4952738;28;20027;-90
2023/03/25 01:11:56;;;;;;;6.00;3.47;;;9.90;99.90;;;;;;4952057;28;20043;-90
2023/03/25 01:14:28;;;;;;;5.88;3.30;;;9.70;99.90;;;;;;4952175;28;20548;-90
2023/03/25 01:16:54;;;;;;;5.15;2.63;;;9.70;99.90;;;;;;4951902;28;20023;-89
2023/03/25 01:19:20;;;;;;;5.35;2.90;;;9.60;99.90;;;;;;4951219;28;20038;-90
2023/03/25 01:21:45;;;;;;;7.35;3.53;;;9.60;99.90;;;;;;4952322;28;20031;-90
2023/03/25 01:24:13;;;;;;;6.95;3.50;;;9.50;99.90;;;;;;4951730;28;20027;-90
2023/03/25 01:26:40;;;;;;;8.90;2.85;;;9.50;99.90;;;;;;4938838;28;20061;-90
2023/03/25 01:29:06;;;;;;;4.72;2.30;;;9.60;99.90;;;;;;4932543;29;20482;-91
2023/03/25 01:31:31;;;;;;;3.58;2.10;;;9.70;99.90;;;;;;4932822;29;20032;-90
2023/03/25 01:33:58;;;;;;;6.57;2.63;;;9.80;99.90;;;;;;4932434;29;20035;-89
2023/03/25 01:36:28;;;;;;;8.50;2.55;;;9.80;99.90;;;;;;4932960;29;20032;-90
2023/03/25 01:38:54;;;;;;;5.13;2.50;;;10.00;99.90;;;;;;4932696;29;20103;-90
2023/03/25 01:41:20;;;;;;;3.25;2.00;;;10.00;99.90;;;;;;4932723;29;20456;-90
2023/03/25 01:44:18;;;;;;;8.00;2.33;;;10.00;99.90;;;;;;4932864;29;20119;-90
2023/03/25 01:46:45;;;;;;;4.40;1.80;;;10.10;99.90;;;;;;4932755;29;20027;-90
2023/03/25 01:49:22;;;;;;;4.30;2.30;;;10.20;99.90;;;;;;4932266;28;20038;-90
2023/03/25 01:51:54;;;;;;;5.00;2.17;;;10.20;99.90;;;;;;4932515;29;20032;-90
2023/03/25 01:54:20;;;;;;;5.85;2.00;;;10.20;99.90;;;;;;4932388;29;20024;-90
2023/03/25 01:56:48;;;;;;;8.82;2.45;;;10.10;99.90;;;;;;4932903;28;20512;-90
2023/03/25 01:59:17;;;;;;;5.45;2.17;;;10.10;99.90;;;;;;4947372;29;20070;-90
2023/03/25 02:01:45;;;;;;;7.80;2.45;;;10.00;99.90;;;;;;4949418;29;20062;-89
2023/03/25 02:04:13;;;;;;;5.82;2.20;;;10.10;99.90;;;;;;4951618;28;20020;-90
2023/03/25 02:06:44;;;;;;;4.07;2.00;;;10.20;99.90;;;;;;4951194;28;20133;-91
2023/03/25 02:09:14;;;;;;;5.50;2.03;;;10.10;99.90;;;;;;4951302;28;20086;-90
2023/03/25 02:11:40;;;;;;;5.47;2.38;;;10.00;99.90;;;;;;4951773;28;20481;-90
2023/03/25 02:14:13;;;;;;;6.07;2.22;;;10.00;99.90;;;;;;4951330;28;20106;-90
2023/03/25 02:16:45;;;;;;;6.88;1.90;;;10.00;99.90;;;;;;4950106;28;20085;-90
2023/03/25 02:19:16;;;;;;;5.40;2.10;;;10.00;99.90;;;;;;4951249;28;20036;-90
2023/03/25 02:22:10;;;;;;;4.93;1.90;;;10.00;99.90;;;;;;4951086;28;20074;-90
2023/03/25 02:25:00;;;;;;;5.00;2.13;;;10.10;99.90;;;;;;4951301;28;20027;-90
2023/03/25 02:28:03;;;;;;;6.50;2.28;;;10.10;99.90;;;;;;4951245;29;20154;-90
2023/03/25 02:31:05;;;;;;;6.28;2.03;;;10.10;99.90;;;;;;4951670;28;20501;-90
2023/03/25 02:34:01;;;;;;;6.15;1.92;;;10.10;99.90;;;;;;4955060;28;20447;-90
2023/03/25 02:36:52;;;;;;;5.03;1.80;;;10.30;99.90;;;;;;4954416;28;20069;-90
2023/03/25 02:39:53;;;;;;;4.13;1.90;;;10.30;99.90;;;;;;4954399;28;20057;-90
2023/03/25 02:42:41;;;;;;;3.50;1.90;;;10.30;99.90;;;;;;4952922;28;20039;-90
2023/03/25 02:45:18;;;;;;;6.95;2.30;;;10.20;99.90;;;;;;4954405;28;20038;-90
2023/03/25 02:47:48;;;;;;;4.82;2.10;;;10.20;99.90;;;;;;4954328;28;20059;-90
2023/03/25 02:50:19;;;;;;;5.13;1.80;;;10.20;99.90;;;;;;4954160;28;20439;-90
2023/03/25 02:52:53;;;;;;;5.18;1.90;;;10.10;99.90;;;;;;4954439;28;20412;-90
2023/03/25 02:55:21;;;;;;;5.32;1.95;;;10.10;99.90;;;;;;4954570;28;20053;-90
2023/03/25 02:57:51;;;;;;;4.50;2.00;;;10.20;99.90;;;;;;4954063;28;20401;-90
2023/03/25 03:00:19;;;;;;;7.03;2.42;;;10.10;99.90;;;;;;4953901;28;20396;-90
2023/03/25 03:02:58;;;;;;;5.05;2.28;;;10.00;99.90;;;;;;4954176;28;20019;-91
2023/03/25 03:05:26;;;;;;;4.50;2.70;;;10.00;99.90;;;;;;4954024;28;20505;-90
2023/03/25 03:08:02;;;;;;;6.53;2.22;;;9.90;99.90;;;;;;4953999;28;20449;-90
2023/03/25 03:11:10;;;;;;;3.92;1.70;;;9.80;99.90;;;;;;4954033;28;20070;-90
2023/03/25 03:13:35;;;;;;;4.00;1.52;;;9.80;99.90;;;;;;4951544;29;20500;-90
2023/03/25 03:16:20;;;;;;;5.38;1.90;;;9.60;99.90;;;;;;4951538;29;20066;-90
2023/03/25 03:19:13;;;;;;;4.38;2.00;;;9.60;99.90;;;;;;4951792;29;20093;-90
2023/03/25 03:22:01;;;;;;;4.25;1.80;;;9.30;99.90;;;;;;4951529;29;20078;-91
2023/03/25 03:24:38;;;;;;;4.82;1.60;;;9.30;99.90;;;;;;4951549;29;20035;-90
2023/03/25 03:27:06;;;;;;;7.40;1.70;;;9.30;99.90;;;;;;4951250;29;20051;-90
2023/03/25 03:29:40;;;;;;;10.43;1.73;;;9.40;99.90;;;;;;4951452;29;20042;-90
2023/03/25 03:32:14;;;;;;;4.10;1.90;;;9.40;99.90;;;;;;4951732;29;20047;-90
2023/03/25 03:34:48;;;;;;;5.10;1.85;;;9.40;99.90;;;;;;4951635;29;20038;-90
2023/03/25 03:37:26;;;;;;;5.07;1.90;;;9.30;99.90;;;;;;4951470;28;20036;-91
2023/03/25 03:39:54;;;;;;;3.92;2.17;;;9.20;99.90;;;;;;4951188;29;20027;-90
2023/03/25 03:42:27;;;;;;;7.78;1.83;;;9.30;99.90;;;;;;4950908;29;20035;-90
2023/03/25 03:44:59;;;;;;;5.18;2.22;;;9.30;99.90;;;;;;4951250;29;20171;-90
2023/03/25 03:47:28;;;;;;;6.45;2.00;;;9.50;99.90;;;;;;4951086;29;20109;-90
2023/03/25 03:50:03;;;;;;;5.65;1.65;;;9.70;99.90;;;;;;4945119;28;20383;-90
2023/03/25 03:52:41;;;;;;;5.18;2.10;;;9.60;99.90;;;;;;4934248;29;20036;-90
2023/03/25 03:55:13;;;;;;;4.63;1.90;;;9.70;99.90;;;;;;4934152;29;20032;-90
2023/03/25 03:57:51;;;;;;;4.80;1.67;;;9.70;99.90;;;;;;4934019;29;20529;-90
2023/03/25 04:00:20;;;;;;;4.88;1.60;;;9.70;99.90;;;;;;4934089;29;20398;-90
2023/03/25 04:02:51;;;;;;;5.18;1.52;;;9.80;99.90;;;;;;4934602;29;20092;-90
2023/03/25 04:05:19;;;;;;;3.85;1.73;;;9.90;99.90;;;;;;4934770;29;20070;-90
2023/03/25 04:07:57;;;;;;;4.65;1.60;;;9.90;99.90;;;;;;4934111;29;20036;-91
2023/03/25 04:10:38;;;;;;;4.45;1.58;;;9.90;99.90;;;;;;4934285;29;20020;-90
2023/03/25 04:13:08;;;;;;;5.82;1.65;;;10.00;99.90;;;;;;4933222;29;20031;-90
2023/03/25 04:15:35;;;;;;;5.40;2.05;;;10.00;99.90;;;;;;4934287;29;20505;-90
2023/03/25 04:18:02;;;;;;;5.07;1.40;;;9.90;99.90;;;;;;4933915;29;20035;-90
2023/03/25 04:20:32;;;;;;;4.22;1.52;;;10.00;99.90;;;;;;4933241;29;20215;-89
2023/03/25 04:22:59;;;;;;;4.25;1.67;;;10.00;99.90;;;;;;4933248;29;20039;-91
2023/03/25 04:25:25;;;;;;;4.32;1.50;;;10.10;99.90;;;;;;4932793;28;20102;-90
2023/03/25 04:27:57;;;;;;;5.65;1.70;;;10.10;99.90;;;;;;4933609;29;20449;-90
2023/03/25 04:30:24;;;;;;;6.60;1.65;;;10.10;99.90;;;;;;4932993;29;20516;-90
2023/03/25 04:32:51;;;;;;;5.00;2.15;;;10.20;99.90;;;;;;4933695;29;20413;-90
2023/03/25 04:35:18;;;;;;;4.65;1.85;;;10.20;99.90;;;;;;4934133;29;20549;-90
2023/03/25 04:37:45;;;;;;;4.88;1.88;;;10.20;99.90;;;;;;4933752;29;20020;-90
2023/03/25 04:40:18;;;;;;;4.15;1.42;;;10.20;99.90;;;;;;4933995;29;20074;-90
2023/03/25 04:42:45;;;;;;;3.42;1.73;;;10.20;99.90;;;;;;4933396;29;20081;-90
2023/03/25 04:45:15;;;;;;;4.82;1.65;;;10.30;99.90;;;;;;4940702;29;20111;-90
2023/03/25 04:47:43;;;;;;;6.25;2.00;;;10.20;99.90;;;;;;4953011;28;20032;-90
2023/03/25 04:50:30;;;;;;;3.03;1.60;;;10.20;99.90;;;;;;4953115;28;20118;-90
2023/03/25 04:52:57;;;;;;;3.75;1.60;;;10.30;99.90;;;;;;4952213;28;20041;-90
2023/03/25 04:55:24;;;;;;;4.22;1.77;;;10.30;99.90;;;;;;4952610;28;20089;-90
2023/03/25 04:57:51;;;;;;;3.85;1.67;;;10.30;99.90;;;;;;4952148;28;20023;-90
2023/03/25 05:00:19;;;;;;;4.50;1.77;;;10.20;99.90;;;;;;4952719;28;20073;-90
2023/03/25 05:02:48;;;;;;;6.18;1.42;;;10.30;99.90;;;;;;4952671;28;20691;-90
2023/03/25 05:05:19;;;;;;;4.93;1.80;;;10.40;99.90;;;;;;4952974;28;20024;-91
2023/03/25 05:07:45;;;;;;;4.60;1.50;;;10.50;99.90;;;;;;4952610;28;20481;-90
2023/03/25 05:10:12;;;;;;;5.60;1.65;;;10.50;99.90;;;;;;4952380;28;20108;-90
2023/03/25 05:12:38;;;;;;;5.18;1.52;;;10.40;99.90;;;;;;4952663;28;20035;-90
2023/03/25 05:15:05;;;;;;;4.30;1.70;;;10.40;99.90;;;;;;4952343;28;20124;-90
2023/03/25 05:17:30;;;;;;;5.60;1.85;;;10.50;99.90;;;;;;4952545;28;20035;-90
2023/03/25 05:19:56;;;;;;;5.68;1.80;;;10.50;99.90;;;;;;4952257;29;20555;-90
2023/03/25 05:22:22;;;;;;;5.53;2.55;;;10.50;99.90;;;;;;4952383;28;20114;-90
2023/03/25 05:24:52;;;;;;;5.18;1.80;;;10.50;99.90;;;;;;4952250;28;20062;-90
2023/03/25 05:27:19;;;;;;;4.72;1.77;;;10.50;99.90;;;;;;4952562;28;20059;-90
2023/03/25 05:29:45;;;;;;;3.92;1.60;;;10.50;99.90;;;;;;4952424;28;20032;-90
2023/03/25 05:32:16;;;;;;;4.22;1.50;;;10.50;99.90;;;;;;4952112;28;20042;-90
2023/03/25 05:34:46;;;;;;;4.03;1.98;;;10.40;99.90;;;;;;4952198;28;20035;-91
2023/03/25 05:37:13;;;;;;;6.03;2.20;;;10.30;99.90;;;;;;4952336;28;20046;-90
2023/03/25 05:39:39;;;;;;;7.38;1.77;;;10.30;99.90;;;;;;4951751;28;20515;-91
2023/03/25 05:42:04;;;;;;;3.25;1.42;;;10.40;99.90;;;;;;4952286;28;20114;-90
2023/03/25 05:44:30;;;;;;;5.57;1.50;;;10.50;99.90;;;;;;4951549;28;20035;-89
2023/03/25 05:46:55;;;;;;;4.97;1.50;;;10.40;99.90;;;;;;4951147;29;20023;-90
2023/03/25 05:49:21;;;;;;;3.17;1.42;;;10.40;99.90;;;;;;4951759;28;20034;-90
2023/03/25 05:51:48;;;;;;;6.47;1.40;;;10.50;99.90;;;;;;4951676;28;20529;-90
2023/03/25 05:54:14;;;;;;;3.08;1.65;;;10.50;99.90;;;;;;4951851;28;20031;-91
2023/03/25 05:56:41;;;;;;;5.43;1.65;;;10.50;99.90;;;;;;4951803;28;20503;-91
2023/03/25 05:59:09;;;;;;;3.65;1.42;;;10.60;99.90;;;;;;4951658;28;20551;-90
2023/03/25 06:01:36;;;;;;;5.88;1.27;;;10.60;99.90;;;;;;4951853;28;20038;-90
2023/03/25 06:04:02;;;;;;;5.43;1.35;;;10.70;99.90;;;;;;4951925;28;20061;-90
2023/03/25 06:06:29;;;;;;;3.05;1.45;;;10.70;99.90;;;;;;4955052;28;20031;-91
2023/03/25 06:08:54;;;;;;;4.55;1.30;;;10.70;99.90;;;;;;4954891;28;20098;-91
2023/03/25 06:11:20;;;;;;;5.05;1.55;;;10.70;99.90;;;;;;4955108;28;20110;-90
2023/03/25 06:13:49;;;;;;;4.72;1.40;;;10.60;99.90;;;;;;4955018;28;20492;-90
2023/03/25 06:16:19;;;;;;;5.82;1.50;;;10.70;99.90;;;;;;4953961;28;20127;-91
2023/03/25 06:18:49;;;;;;;4.90;1.48;;;10.70;99.90;;;;;;4953875;29;20028;-90
2023/03/25 06:21:19;;;;;;;3.53;1.30;;;10.70;99.90;;;;;;4954928;28;20389;-90
2023/03/25 06:23:46;;;;;;;5.22;1.88;;;10.70;99.90;;;;;;4954499;28;20034;-91
2023/03/25 06:26:12;;;;;;;4.43;1.40;;;10.80;99.90;;;;;;4945939;28;20119;-89
2023/03/25 06:28:38;;;;;;;3.40;1.50;;;10.90;99.90;;;;;;4935430;29;20051;-89
2023/03/25 06:31:07;;;;;;;6.53;1.90;;;10.90;99.90;;;;;;4935057;29;20035;-90
2023/03/25 06:33:33;;;;;;;3.92;1.48;;;11.00;99.90;;;;;;4935558;29;20035;-90
2023/03/25 06:35:59;;;;;;;6.35;1.50;;;11.00;99.90;;;;;;4935485;29;20541;-90
2023/03/25 06:38:25;;;;;;;4.38;1.55;;;11.10;99.90;;;;;;4934854;29;20449;-89
2023/03/25 06:40:50;;;;;;;3.33;1.60;;;11.20;99.90;;;;;;4935429;29;20402;-91
2023/03/25 06:43:16;;;;;;;5.88;1.50;;;11.20;99.90;;;;;;4935098;29;20287;-92
2023/03/25 06:45:42;;;;;;;5.05;1.50;;;11.20;99.90;;;;;;4946735;29;20027;-91
2023/03/25 06:48:07;;;;;;;4.75;1.75;;;11.20;99.90;;;;;;4954594;28;20035;-91
2023/03/25 06:50:33;;;;;;;3.38;1.40;;;11.20;99.90;;;;;;4954305;28;20015;-91
2023/03/25 06:52:59;;;;;;;5.28;1.60;;;11.20;99.90;;;;;;4954159;28;20060;-91
2023/03/25 06:55:24;;;;;;;4.18;1.42;;;11.30;99.90;;;;;;4954263;28;20115;-91
2023/03/25 06:57:55;;;;;;;4.65;1.42;;;11.30;99.90;;;;;;4954346;28;20023;-91
2023/03/25 07:00:22;;;;;;;5.75;1.70;;;11.40;99.90;;;;;;4954213;28;20473;-91
2023/03/25 07:02:48;;;;;;;5.90;1.65;;;11.40;99.90;;;;;;4954353;28;20031;-91
2023/03/25 07:05:14;;;;;;;3.42;1.55;;;11.40;99.90;;;;;;4954682;28;20461;-90
2023/03/25 07:07:40;;;;;;;3.70;1.67;;;11.30;99.90;;;;;;4953884;28;20034;-91
2023/03/25 07:10:06;;;;;;;5.90;1.55;;;11.30;99.90;;;;;;4954291;28;20043;-90
2023/03/25 07:12:33;;;;;;;4.40;1.38;;;11.40;99.90;;;;;;4954010;28;20420;-91
2023/03/25 07:14:59;;;;;;;2.63;1.15;;;11.50;99.90;;;;;;4952750;28;20023;-91
2023/03/25 07:17:26;;;;;;;4.10;1.55;;;11.50;99.90;;;;;;4954253;28;20566;-91
2023/03/25 07:19:51;;;;;;;5.80;1.90;;;11.60;99.90;;;;;;4953704;28;20077;-91
2023/03/25 07:22:17;;;;;;;3.10;1.50;;;11.60;99.90;;;;;;4953721;28;20024;-92
2023/03/25 07:24:43;;;;;;;4.63;1.48;;;11.80;99.90;;;;;;4953880;28;20031;-91
2023/03/25 07:27:13;;;;;;;2.63;1.52;;;11.80;99.90;;;;;;4937248;28;20047;-91
2023/03/25 07:29:39;;;;;;;3.53;1.55;;;11.80;99.90;;;;;;4933522;29;20042;-91
2023/03/25 07:32:05;;;;;;;5.35;1.63;;;12.00;99.90;;;;;;4937315;29;20096;-90
2023/03/25 07:34:31;;;;;;;4.97;1.50;;;12.00;99.90;;;;;;4952590;28;20028;-92
2023/03/25 07:36:58;;;;;;;3.72;1.50;;;12.00;99.90;;;;;;4957621;28;20027;-91
2023/03/25 07:39:24;;;;;;;4.38;1.77;;;12.10;99.90;;;;;;4952138;28;20036;-90
2023/03/25 07:41:53;;;;;;;6.50;1.50;;;12.10;99.90;;;;;;4953059;28;20054;-90
2023/03/25 07:44:20;;;;;;;5.32;2.65;;;12.10;99.90;;;;;;4953038;28;20031;-90
2023/03/25 07:46:46;;;;;;;5.43;2.10;;;12.20;99.90;;;;;;4953296;28;20038;-90
2023/03/25 07:49:12;;;;;;;4.75;1.60;;;12.30;99.90;;;;;;4952980;28;20520;-90
2023/03/25 07:51:38;;;;;;;4.13;1.67;;;12.30;99.90;;;;;;4952571;28;20031;-90
2023/03/25 07:54:04;;;;;;;4.45;1.58;;;12.40;99.90;;;;;;4953153;28;20389;-90
2023/03/25 07:56:30;;;;;;;4.18;1.60;;;12.50;99.90;;;;;;4952827;28;20031;-90
2023/03/25 07:58:55;;;;;;;4.15;1.80;;;12.50;99.90;;;;;;4953318;28;20440;-90
2023/03/25 08:01:21;;;;;;;6.85;2.10;;;12.60;99.90;;;;;;4952769;28;20089;-90
2023/03/25 08:03:46;;;;;;;6.10;1.73;;;12.80;99.90;;;;;;4952865;28;20019;-90
2023/03/25 08:06:12;;;;;;;6.55;1.90;;;13.00;99.90;;;;;;4952600;28;20074;-90
2023/03/25 08:08:38;;;;;;;5.13;1.52;;;13.10;99.90;;;;;;4948993;28;20031;-89
2023/03/25 08:11:04;;;;;;;6.35;1.75;;;13.20;99.90;;;;;;4952585;28;20122;-90
2023/03/25 08:13:30;;;;;;;4.40;1.33;;;13.20;99.90;;;;;;4952824;28;20102;-90
2023/03/25 08:15:55;;;;;;;4.13;1.33;;;13.20;99.90;;;;;;4952977;28;20035;-90
2023/03/25 08:18:21;;;;;;;6.57;1.65;;;13.20;99.90;;;;;;4952604;28;20102;-90
2023/03/25 08:20:49;;;;;;;3.20;1.30;;;13.10;99.90;;;;;;4952326;28;20032;-90
2023/03/25 08:23:18;;;;;;;5.30;1.30;;;13.00;99.90;;;;;;4952542;28;20038;-89
2023/03/25 08:25:47;;;;;;;3.95;1.42;;;13.00;99.90;;;;;;4947891;28;20607;-90
2023/03/25 08:28:16;;;;;;;6.10;1.52;;;13.10;99.90;;;;;;4932442;29;20046;-90
2023/03/25 08:30:42;;;;;;;5.15;1.45;;;13.10;99.90;;;;;;4933190;29;20123;-89
2023/03/25 08:33:09;;;;;;;6.10;1.42;;;13.10;99.90;;;;;;4933518;29;20044;-89
2023/03/25 08:35:36;;;;;;;4.93;1.60;;;13.20;99.90;;;;;;4932929;28;20466;-90
2023/03/25 08:38:05;;;;;;;3.90;1.35;;;13.20;99.90;;;;;;4933362;29;20513;-89
2023/03/25 08:40:35;;;;;;;4.43;1.20;;;13.20;99.90;;;;;;4932988;29;20489;-90
2023/03/25 08:43:03;;;;;;;4.97;1.48;;;13.30;99.90;;;;;;4933380;29;20114;-90
2023/03/25 08:45:31;;;;;;;4.47;1.20;;;13.40;99.90;;;;;;4942950;29;20484;-90
2023/03/25 08:47:57;;;;;;;6.78;1.77;;;13.40;99.90;;;;;;4951595;28;20134;-90
2023/03/25 08:50:23;;;;;;;4.03;1.38;;;13.50;99.90;;;;;;4952420;28;20043;-89
2023/03/25 08:52:48;;;;;;;4.95;1.40;;;13.60;99.90;;;;;;4952111;28;20035;-90
2023/03/25 08:55:15;;;;;;;5.70;1.20;;;13.70;99.90;;;;;;4951930;28;20058;-90
2023/03/25 08:57:41;;;;;;;2.63;1.10;;;13.60;99.90;;;;;;4951876;28;20424;-90
2023/03/25 09:00:15;;;;;;;4.07;1.10;;;13.60;99.90;;;;;;4950712;28;20523;-89
2023/03/25 09:02:42;;;;;;;5.68;1.17;;;13.70;99.90;;;;;;4951543;28;20807;-90
2023/03/25 09:05:11;;;;;;;5.88;1.40;;;13.80;99.90;;;;;;4952239;28;20107;-90
2023/03/25 09:07:38;;;;;;;5.57;1.50;;;13.70;99.90;;;;;;4951876;28;20027;-91
2023/03/25 09:10:06;;;;;;;4.13;1.33;;;13.80;99.90;;;;;;4951837;28;20035;-90
2023/03/25 09:12:32;;;;;;;2.47;1.17;;;13.60;99.90;;;;;;4951741;28;20555;-90
2023/03/25 09:14:57;;;;;;;4.20;1.50;;;13.60;99.90;;;;;;4952182;28;20027;-90
2023/03/25 09:17:23;;;;;;;2.38;1.00;;;13.60;99.90;;;;;;4951555;28;20035;-90
2023/03/25 09:19:49;;;;;;;3.05;1.33;;;13.60;99.90;;;;;;4951526;28;20058;-90
2023/03/25 09:22:15;;;;;;;5.10;1.42;;;13.70;99.90;;;;;;4951536;28;20030;-90
2023/03/25 09:24:41;;;;;;;3.40;1.27;;;13.70;99.90;;;;;;4951716;28;20055;-90
2023/03/25 09:27:07;;;;;;;4.93;1.40;;;13.80;99.90;;;;;;4936334;28;20152;-89
2023/03/25 09:29:33;;;;;;;3.55;1.58;;;13.80;99.90;;;;;;4932442;29;20027;-90
2023/03/25 09:31:59;;;;;;;6.13;1.48;;;13.80;99.90;;;;;;4932066;29;20510;-90
2023/03/25 09:34:26;;;;;;;4.40;1.60;;;13.90;99.90;;;;;;4932641;29;20102;-90
2023/03/25 09:36:53;;;;;;;5.03;1.20;;;13.90;99.90;;;;;;4932269;29;20032;-91
2023/03/25 09:39:19;;;;;;;2.50;1.05;;;13.70;99.90;;;;;;4932041;29;20042;-89
2023/03/25 09:42:11;;;;;;;4.47;1.52;;;13.70;99.90;;;;;;4932374;29;20032;-90
2023/03/25 09:44:51;;;;;;;3.70;1.10;;;13.80;99.90;;;;;;4934982;29;20023;-90
2023/03/25 09:47:19;;;;;;;4.60;1.38;;;13.90;99.90;;;;;;4950792;28;20382;-90
2023/03/25 09:49:52;;;;;;;4.00;1.30;;;13.90;99.90;;;;;;4951418;28;20089;-90
2023/03/25 09:52:33;;;;;;;3.30;1.30;;;13.90;99.90;;;;;;4951309;28;20039;-90
2023/03/25 09:55:03;;;;;;;6.85;1.67;;;13.90;99.90;;;;;;4951556;28;20023;-89
2023/03/25 09:57:32;;;;;;;4.78;1.50;;;13.90;99.90;;;;;;4951171;28;20382;-90
2023/03/25 10:00:00;;;;;;;3.83;1.48;;;14.00;99.90;;;;;;4951062;28;20026;-90
2023/03/25 10:02:45;;;;;;;4.88;1.50;;;14.10;99.90;;;;;;4950767;28;20027;-90
2023/03/25 10:05:25;;;;;;;4.70;1.60;;;14.10;99.90;;;;;;4950297;29;20043;-89
2023/03/25 10:08:34;;;;;;;4.13;1.60;;;14.30;99.90;;;;;;4950796;28;20042;-90
2023/03/25 10:11:35;;;;;;;6.20;1.98;;;14.40;99.90;;;;;;4950891;28;20397;-90
2023/03/25 10:14:10;;;;;;;3.33;1.40;;;14.40;99.90;;;;;;4948831;28;20063;-90
2023/03/25 10:17:04;;;;;;;2.53;1.15;;;14.50;99.90;;;;;;4948470;29;20039;-90
2023/03/25 10:19:41;;;;;;;4.43;1.23;;;14.30;99.90;;;;;;4949114;29;20043;-90
2023/03/25 10:22:27;;;;;;;5.15;1.20;;;14.20;99.90;;;;;;4948644;29;20027;-90
2023/03/25 10:24:56;;;;;;;3.38;1.15;;;14.10;99.90;;;;;;4948853;29;20118;-90
2023/03/25 10:27:32;;;;;;;3.72;1.30;;;14.00;99.90;;;;;;4948460;29;20039;-90
2023/03/25 10:30:03;;;;;;;5.30;1.30;;;14.00;99.90;;;;;;4948743;29;20042;-90
2023/03/25 10:32:35;;;;;;;3.15;1.00;;;14.00;99.90;;;;;;4948498;29;20071;-89
2023/03/25 10:35:04;;;;;;;5.57;1.40;;;14.10;99.90;;;;;;4948827;29;20039;-91
2023/03/25 10:37:38;;;;;;;4.93;1.58;;;14.40;99.90;;;;;;4932684;29;20039;-90
2023/03/25 10:40:24;;;;;;;4.07;0.95;;;15.10;99.90;;;;;;4948500;29;20023;-90
2023/03/25 10:43:17;;;;;;;3.88;0.95;;;15.30;99.90;;;;;;4948180;29;20043;-90
2023/03/25 10:45:45;;;;;;;2.70;1.00;;;17.10;99.90;;;;;;4947914;29;20440;-89
2023/03/25 10:48:20;;;;;;;2.83;1.00;;;20.50;99.90;;;;;;4948588;29;20027;-90
2023/03/25 10:50:46;;;;;;;3.03;1.20;;;20.50;99.90;;;;;;4932885;29;20058;-90
2023/03/25 10:53:24;;;;;;;2.95;1.20;;;18.30;99.90;;;;;;4934716;29;20032;-90
2023/03/25 10:56:14;;;;;;;2.28;0.98;;;17.80;99.90;;;;;;4934665;29;20028;-90
2023/03/25 10:58:42;;;;;;;1.92;1.00;;;17.40;99.90;;;;;;4934144;29;20044;-90
2023/03/25 11:01:20;;;;;;;3.55;1.45;;;17.90;99.90;;;;;;4934448;28;20036;-90
2023/03/25 11:03:51;;;;;;;2.67;1.17;;;17.30;99.90;;;;;;4934839;29;20028;-90
2023/03/25 11:06:29;;;;;;;1.60;1.15;;;17.70;99.90;;;;;;4934423;29;20028;-90
2023/03/25 11:09:06;;;;;;;1.52;1.25;;;18.90;99.90;;;;;;4934517;29;20020;-89
2023/03/25 11:11:33;;;;;;;4.75;1.13;;;22.60;99.90;;;;;;4934504;28;20038;-91
2023/03/25 11:14:00;;;;;;;3.30;1.30;;;25.00;99.90;;;;;;4934348;29;20577;-91
2023/03/25 11:16:29;;;;;;;3.58;1.20;;;26.00;99.90;;;;;;4934371;28;20103;-90
2023/03/25 11:18:59;;;;;;;4.65;1.48;;;25.30;99.90;;;;;;4934325;29;20441;-90
2023/03/25 11:21:25;;;;;;;2.30;0.95;;;20.60;99.90;;;;;;4934699;29;20028;-90
2023/03/25 11:23:51;;;;;;;2.30;1.15;;;24.30;99.90;;;;;;4934452;29;20027;-90
2023/03/25 11:26:37;;;;;;;2.10;1.30;;;23.30;99.90;;;;;;4934171;28;20056;-90
2023/03/25 11:29:12;;;;;;;1.92;1.02;;;23.30;99.90;;;;;;4933854;29;20077;-90
2023/03/25 11:31:39;;;;;;;1.95;1.13;;;21.10;99.90;;;;;;4934071;29;20398;-90
2023/03/25 11:34:11;;;;;;;1.52;0.90;;;20.10;99.90;;;;;;4934156;29;20012;-90
2023/03/25 11:36:58;;;;;;;2.35;1.50;;;20.20;99.90;;;;;;4933932;29;20498;-91
2023/03/25 11:39:40;;;;;;;2.00;1.20;;;19.90;99.90;;;;;;4934526;29;20046;-91
2023/03/25 11:42:31;;;;;;;3.65;1.13;;;20.00;99.90;;;;;;4933679;29;20416;-90
2023/03/25 11:44:58;;;;;;;3.92;1.10;;;21.80;99.90;;;;;;4939146;29;20037;-90
2023/03/25 11:47:37;;;;;;;2.70;1.00;;;20.00;99.90;;;;;;4952917;28;20560;-90
2023/03/25 11:50:04;;;;;;;1.80;0.90;;;19.30;99.90;;;;;;4951803;28;20444;-90
2023/03/25 11:52:44;;;;;;;3.47;1.13;;;18.80;99.90;;;;;;4952951;28;20166;-90
2023/03/25 11:55:16;;;;;;;3.47;1.40;;;18.40;99.90;;;;;;4953097;28;20081;-90
2023/03/25 11:57:45;;;;;;;1.67;1.05;;;18.30;99.90;;;;;;4952580;28;20031;-90
2023/03/25 12:00:27;;;;;;;4.65;1.23;;;18.30;99.90;;;;;;4952075;28;20054;-90
2023/03/25 12:03:17;;;;;;;2.78;1.25;;;18.10;99.90;;;;;;4952834;28;20429;-90
2023/03/25 12:06:00;;;;;;;2.67;1.40;;;20.40;99.90;;;;;;4952761;28;20023;-91
2023/03/25 12:08:30;;;;;;;3.28;2.10;;;22.50;99.90;;;;;;4953073;28;20043;-90
2023/03/25 12:11:07;;;;;;;2.38;1.20;;;25.60;99.90;;;;;;4952571;28;20114;-90
2023/03/25 12:13:50;;;;;;;2.10;1.02;;;24.90;99.90;;;;;;4952933;28;20019;-90
2023/03/25 12:16:18;;;;;;;2.33;1.38;;;24.30;99.90;;;;;;4952646;28;20407;-91
2023/03/25 12:19:12;;;;;;;3.38;1.42;;;23.50;99.90;;;;;;4952588;28;20031;-91
2023/03/25 12:22:07;;;;;;;5.05;3.03;;;24.80;99.90;;;;;;4952629;29;20062;-91
2023/03/25 12:24:51;;;;;;;3.05;1.00;;;23.50;99.90;;;;;;4950163;29;20032;-90
2023/03/25 12:28:10;;;;;;;2.22;1.17;;;22.80;99.90;;;;;;4949758;29;20086;-91
2023/03/25 12:30:57;;;;;;;2.15;1.08;;;24.60;99.90;;;;;;4931092;29;20028;-91
2023/03/25 12:33:27;;;;;;;3.40;1.23;;;21.70;99.90;;;;;;4931054;29;20031;-92
2023/03/25 12:36:18;;;;;;;2.92;1.17;;;20.10;99.90;;;;;;4931008;29;20159;-90
2023/03/25 12:39:10;;;;;;;2.35;1.10;;;19.10;99.90;;;;;;4915480;28;20539;-90
2023/03/25 12:41:41;;;;;;;2.58;1.13;;;18.60;99.90;;;;;;4930759;28;20040;-90
2023/03/25 12:44:18;;;;;;;3.03;1.30;;;18.70;99.90;;;;;;4931133;29;20063;-91
2023/03/25 12:47:02;;;;;;;3.70;1.20;;;18.90;99.90;;;;;;4930775;29;20126;-90
2023/03/25 12:49:42;;;;;;;1.98;1.08;;;18.80;99.90;;;;;;4930950;29;20536;-90
2023/03/25 12:52:14;;;;;;;2.13;1.05;;;18.70;99.90;;;;;;4930957;29;20126;-90
2023/03/25 12:54:51;;;;;;;3.75;1.50;;;18.50;99.90;;;;;;4930557;29;20115;-90
2023/03/25 12:57:42;;;;;;;3.83;1.73;;;18.60;99.90;;;;;;4930605;29;20051;-91
2023/03/25 13:00:38;;;;;;;3.60;1.40;;;19.70;99.90;;;;;;4930872;28;20035;-89
2023/03/25 13:03:31;;;;;;;2.58;1.25;;;22.60;99.90;;;;;;4932963;29;20031;-90
2023/03/25 13:05:57;;;;;;;3.33;1.10;;;22.20;99.90;;;;;;4932713;28;20070;-91
2023/03/25 13:08:29;;;;;;;2.35;1.20;;;22.20;99.90;;;;;;4932774;28;20564;-91
2023/03/25 13:11:08;;;;;;;1.77;1.00;;;23.40;99.90;;;;;;4932252;29;20031;-91